Time;durP1;ratioP1;P1;durP2;ratioP2;P2;SDS_P1;SDS_P2;PMS_P1;PMS_P2;Temp;Humidity;BMP_temperature;BMP_pressure;BME280_temperature;BME280_humidity;BME280_pressure;Samples;Min_cycle;Max_cycle;Signal;HPM_P1;HPM_P2
2022/04/28 00:00:59;;;;;;;;;;;12.90;81.70;;;;;;5030463;28;19913;-64
2022/04/28 00:03:24;;;;;;;;;;;12.90;81.80;;;;;;5027123;28;19914;-64
2022/04/28 00:05:50;;;;;;;;;;;12.90;82.10;;;;;;5030576;28;19920;-65
2022/04/28 00:08:15;;;;;;;;;;;12.80;81.80;;;;;;5030257;28;19921;-64
2022/04/28 00:10:41;;;;;;;;;;;12.80;82.40;;;;;;5031024;28;19925;-66
2022/04/28 00:13:07;;;;;;;;;;;12.70;82.40;;;;;;5028934;28;20329;-66
2022/04/28 00:15:33;;;;;;;;;;;12.70;82.80;;;;;;5026834;28;19913;-65
2022/04/28 00:17:58;;;;;;;;;;;12.70;82.30;;;;;;5026477;28;19960;-65
2022/04/28 00:20:24;;;;;;;;;;;12.70;82.80;;;;;;5028493;28;19917;-65
2022/04/28 00:22:50;;;;;;;;;;;12.70;82.60;;;;;;5030676;28;20401;-65
2022/04/28 00:25:15;;;;;;;;;;;12.60;82.40;;;;;;5030243;28;19913;-63
2022/04/28 00:27:41;;;;;;;;;;;12.60;83.10;;;;;;5030081;28;20008;-65
2022/04/28 00:30:07;;;;;;;;;;;12.50;83.10;;;;;;5038092;28;20347;-64
2022/04/28 00:32:33;;;;;;;;;;;12.50;83.00;;;;;;5039723;28;19917;-65
2022/04/28 00:34:58;;;;;;;;;;;12.50;82.90;;;;;;5029209;28;19963;-65
2022/04/28 00:37:24;;;;;;;;;;;12.50;82.80;;;;;;5028664;28;19909;-63
2022/04/28 00:39:50;;;;;;;;;;;12.40;83.20;;;;;;5027673;28;19923;-67
2022/04/28 00:42:16;;;;;;;;;;;12.40;83.20;;;;;;5028908;28;20294;-66
2022/04/28 00:44:42;;;;;;;;;;;12.40;82.90;;;;;;5027568;28;20004;-66
2022/04/28 00:47:08;;;;;;;;;;;12.30;83.40;;;;;;5027986;28;19997;-65
2022/04/28 00:52:18;;;;;;;;;;;12.20;83.50;;;;;;5031157;28;19959;-64
2022/04/28 00:54:44;;;;;;;;;;;12.20;83.60;;;;;;5030265;28;20003;-67
2022/04/28 00:57:11;;;;;;;;;;;12.10;83.70;;;;;;5031361;28;19999;-66
2022/04/28 00:59:38;;;;;;;;;;;12.10;84.20;;;;;;5030409;28;19910;-66
2022/04/28 01:02:04;;;;;;;;;;;12.00;84.10;;;;;;5033787;28;20386;-67
2022/04/28 01:04:30;;;;;;;;;;;12.00;83.90;;;;;;5032701;28;19917;-64
2022/04/28 01:06:55;;;;;;;;;;;12.00;84.10;;;;;;5030143;28;20484;-65
2022/04/28 01:09:21;;;;;;;;;;;12.00;83.90;;;;;;5029959;28;20401;-62
2022/04/28 01:11:46;;;;;;;;;;;11.90;84.30;;;;;;5031491;28;20366;-66
2022/04/28 01:14:12;;;;;;;;;;;11.90;84.20;;;;;;5033208;28;20401;-64
2022/04/28 01:16:37;;;;;;;;;;;11.90;84.40;;;;;;5034742;28;19917;-65
2022/04/28 01:19:03;;;;;;;;;;;11.90;84.30;;;;;;5031986;28;19909;-66
2022/04/28 01:21:29;;;;;;;;;;;11.80;84.60;;;;;;5034734;28;19913;-65
2022/04/28 01:23:55;;;;;;;;;;;11.80;84.60;;;;;;5029960;28;19909;-66
2022/04/28 01:26:22;;;;;;;;;;;11.80;84.60;;;;;;5029491;28;19918;-64
2022/04/28 01:28:48;;;;;;;;;;;11.70;84.80;;;;;;5034492;28;19970;-64
2022/04/28 01:31:13;;;;;;;;;;;11.70;84.90;;;;;;5029272;28;19917;-66
2022/04/28 01:33:39;;;;;;;;;;;11.70;85.20;;;;;;5032346;28;19917;-64
2022/04/28 01:36:05;;;;;;;;;;;11.60;84.90;;;;;;5032712;28;20372;-65
2022/04/28 01:38:32;;;;;;;;;;;11.60;85.20;;;;;;5031338;28;20401;-64
2022/04/28 01:40:57;;;;;;;;;;;11.50;85.60;;;;;;5033086;28;19909;-64
2022/04/28 01:43:23;;;;;;;;;;;11.50;85.80;;;;;;5033567;28;20094;-64
2022/04/28 01:45:49;;;;;;;;;;;11.50;85.70;;;;;;5029603;28;20333;-65
2022/04/28 01:48:15;;;;;;;;;;;11.50;86.20;;;;;;5030931;28;20301;-64
2022/04/28 01:50:40;;;;;;;;;;;11.40;86.40;;;;;;5028385;28;20016;-66
2022/04/28 01:55:50;;;;;;;;;;;11.40;86.30;;;;;;5031627;28;19920;-62
2022/04/28 01:58:15;;;;;;;;;;;11.40;86.50;;;;;;5030930;28;19910;-65
2022/04/28 02:00:41;;;;;;;;;;;11.30;86.70;;;;;;5032387;28;19996;-64
2022/04/28 02:03:07;;;;;;;;;;;11.30;86.70;;;;;;5027674;28;19913;-64
2022/04/28 02:05:32;;;;;;;;;;;11.30;87.10;;;;;;5032446;28;19916;-63
2022/04/28 02:07:59;;;;;;;;;;;11.20;87.80;;;;;;5032227;28;19955;-67
2022/04/28 02:10:25;;;;;;;;;;;11.20;87.00;;;;;;5045313;28;19921;-62
2022/04/28 02:12:51;;;;;;;;;;;11.20;86.90;;;;;;5034588;28;19909;-66
2022/04/28 02:15:16;;;;;;;;;;;11.20;87.00;;;;;;5036813;28;20462;-65
2022/04/28 02:17:42;;;;;;;;;;;11.20;87.50;;;;;;5028626;28;19913;-66
2022/04/28 02:20:11;;;;;;;;;;;11.10;87.80;;;;;;5030362;28;20385;-66
2022/04/28 02:22:37;;;;;;;;;;;11.10;87.60;;;;;;5032506;28;19913;-67
2022/04/28 02:25:03;;;;;;;;;;;11.10;87.80;;;;;;5037818;28;19913;-65
2022/04/28 02:27:28;;;;;;;;;;;11.10;87.60;;;;;;5038316;28;20378;-66
2022/04/28 02:29:54;;;;;;;;;;;11.10;88.00;;;;;;5028376;28;19917;-64
2022/04/28 02:32:20;;;;;;;;;;;11.00;87.80;;;;;;5028348;28;19921;-64
2022/04/28 02:34:45;;;;;;;;;;;11.00;88.90;;;;;;5028740;28;19917;-64
2022/04/28 02:37:11;;;;;;;;;;;10.90;88.50;;;;;;5028152;28;20066;-64
2022/04/28 02:39:36;;;;;;;;;;;10.90;88.80;;;;;;5048221;28;19919;-65
2022/04/28 02:42:02;;;;;;;;;;;10.80;88.40;;;;;;5037642;28;20398;-65
2022/04/28 02:44:27;;;;;;;;;;;10.80;88.50;;;;;;5028333;28;19914;-65
2022/04/28 02:46:53;;;;;;;;;;;10.80;89.00;;;;;;5031639;28;19921;-65
2022/04/28 02:49:18;;;;;;;;;;;10.80;89.20;;;;;;5030651;28;19936;-65
2022/04/28 02:51:44;;;;;;;;;;;10.70;88.70;;;;;;5027607;28;19994;-64
2022/04/28 02:54:09;;;;;;;;;;;10.70;89.60;;;;;;5028681;28;19939;-64
2022/04/28 02:56:35;;;;;;;;;;;10.70;89.40;;;;;;5031414;28;20307;-64
2022/04/28 02:59:01;;;;;;;;;;;10.70;89.60;;;;;;5030537;28;19917;-61
2022/04/28 03:01:26;;;;;;;;;;;10.60;89.30;;;;;;5029908;28;19917;-62
2022/04/28 03:03:52;;;;;;;;;;;10.60;90.10;;;;;;5027453;28;19917;-64
2022/04/28 03:11:47;;;;;;;;;;;10.50;90.50;;;;;;5029507;28;20394;-64
2022/04/28 03:14:13;;;;;;;;;;;10.50;90.40;;;;;;5027043;28;20001;-64
2022/04/28 03:16:38;;;;;;;;;;;10.40;90.40;;;;;;5031786;28;20385;-63
2022/04/28 03:19:04;;;;;;;;;;;10.40;90.50;;;;;;5030734;28;20271;-65
2022/04/28 03:21:29;;;;;;;;;;;10.40;91.20;;;;;;5028345;28;20049;-63
2022/04/28 03:23:55;;;;;;;;;;;10.30;90.60;;;;;;5027739;28;20362;-64
2022/04/28 03:26:21;;;;;;;;;;;10.30;90.60;;;;;;5031115;28;20047;-66
2022/04/28 03:28:46;;;;;;;;;;;10.30;90.60;;;;;;5032066;28;20387;-66
2022/04/28 03:31:12;;;;;;;;;;;10.30;90.60;;;;;;5028594;28;19921;-67
2022/04/28 03:33:38;;;;;;;;;;;10.20;90.90;;;;;;5029565;28;19919;-67
2022/04/28 03:36:50;;;;;;;;;;;10.20;91.00;;;;;;5026759;28;19965;-66
2022/04/28 03:38:52;;;;;;;;;;;10.20;91.10;;;;;;5026892;28;19921;-66
2022/04/28 03:41:18;;;;;;;;;;;10.20;91.00;;;;;;5027884;28;19980;-66
2022/04/28 03:43:44;;;;;;;;;;;10.20;90.80;;;;;;5031751;28;19924;-67
2022/04/28 03:46:15;;;;;;;;;;;10.20;91.10;;;;;;5025960;28;19921;-67
2022/04/28 03:48:40;;;;;;;;;;;10.10;91.20;;;;;;5030188;28;19980;-67
2022/04/28 03:51:06;;;;;;;;;;;10.10;91.10;;;;;;5030433;28;19928;-66
2022/04/28 03:53:33;;;;;;;;;;;10.10;91.50;;;;;;5026090;28;20128;-67
2022/04/28 03:55:59;;;;;;;;;;;10.00;91.30;;;;;;5030815;28;19916;-66
2022/04/28 03:58:27;;;;;;;;;;;10.10;91.50;;;;;;5031520;28;20382;-67
2022/04/28 04:00:53;;;;;;;;;;;10.10;91.50;;;;;;5026150;28;19994;-68
2022/04/28 04:03:20;;;;;;;;;;;10.00;91.40;;;;;;5027045;28;19913;-67
2022/04/28 04:05:48;;;;;;;;;;;10.00;91.30;;;;;;5030398;28;19913;-68
2022/04/28 04:08:14;;;;;;;;;;;10.00;91.50;;;;;;5027502;28;19957;-67
2022/04/28 04:10:40;;;;;;;;;;;10.00;91.70;;;;;;5030591;28;19968;-68
2022/04/28 04:13:05;;;;;;;;;;;10.00;91.80;;;;;;5029185;28;19973;-67
2022/04/28 04:15:32;;;;;;;;;;;9.90;91.90;;;;;;5029656;28;19935;-68
2022/04/28 04:17:57;;;;;;;;;;;9.90;91.90;;;;;;5026502;28;20385;-68
2022/04/28 04:20:23;;;;;;;;;;;9.90;92.10;;;;;;5028015;28;19917;-67
2022/04/28 04:22:49;;;;;;;;;;;9.90;92.00;;;;;;5031401;28;19910;-67
2022/04/28 04:25:14;;;;;;;;;;;9.90;92.00;;;;;;5029356;28;19963;-67
2022/04/28 04:27:40;;;;;;;;;;;9.90;92.10;;;;;;5026102;28;20340;-67
2022/04/28 04:32:50;;;;;;;;;;;9.90;92.40;;;;;;5026746;28;19923;-67
2022/04/28 04:35:16;;;;;;;;;;;9.90;92.30;;;;;;5027259;28;19913;-66
2022/04/28 04:37:41;;;;;;;;;;;9.90;92.60;;;;;;5030761;28;19913;-65
2022/04/28 04:40:08;;;;;;;;;;;9.90;93.00;;;;;;5026045;28;19983;-67
2022/04/28 04:42:34;;;;;;;;;;;9.80;92.50;;;;;;5025872;28;19913;-67
2022/04/28 04:44:59;;;;;;;;;;;9.90;92.70;;;;;;5025882;28;19924;-68
2022/04/28 04:47:25;;;;;;;;;;;9.90;92.50;;;;;;5029535;28;20011;-68
2022/04/28 04:49:50;;;;;;;;;;;9.90;92.60;;;;;;5030697;28;19928;-67
2022/04/28 04:52:19;;;;;;;;;;;9.90;92.70;;;;;;5030485;28;19970;-66
2022/04/28 04:54:44;;;;;;;;;;;9.90;92.80;;;;;;5026192;28;19967;-69
2022/04/28 04:57:10;;;;;;;;;;;9.90;92.80;;;;;;5028489;28;20429;-66
2022/04/28 04:59:35;;;;;;;;;;;9.90;92.80;;;;;;5024495;28;19909;-66
2022/04/28 05:02:01;;;;;;;;;;;9.90;92.80;;;;;;5029822;28;20047;-67
2022/04/28 05:04:26;;;;;;;;;;;9.90;93.00;;;;;;5027868;28;20412;-66
2022/04/28 05:06:52;;;;;;;;;;;9.90;92.90;;;;;;5027342;28;19921;-66
2022/04/28 05:09:17;;;;;;;;;;;9.90;93.10;;;;;;5025556;28;20000;-67
2022/04/28 05:11:43;;;;;;;;;;;9.90;93.20;;;;;;5026235;28;19928;-66
2022/04/28 05:14:08;;;;;;;;;;;9.90;93.20;;;;;;5029572;28;19921;-68
2022/04/28 05:16:34;;;;;;;;;;;10.00;93.30;;;;;;5031240;28;19920;-66
2022/04/28 05:18:59;;;;;;;;;;;10.00;93.10;;;;;;5025688;28;19909;-67
2022/04/28 05:21:25;;;;;;;;;;;10.00;93.20;;;;;;5026477;28;19955;-68
2022/04/28 05:23:50;;;;;;;;;;;10.00;93.60;;;;;;5026059;28;19920;-66
2022/04/28 05:26:16;;;;;;;;;;;10.00;93.50;;;;;;5025915;28;19923;-68
2022/04/28 05:28:41;;;;;;;;;;;10.10;93.10;;;;;;5029025;28;20274;-68
2022/04/28 05:31:07;;;;;;;;;;;10.10;93.30;;;;;;5025614;28;19948;-68
2022/04/28 05:33:32;;;;;;;;;;;10.20;93.30;;;;;;5024451;28;19964;-68
2022/04/28 05:35:59;;;;;;;;;;;10.20;93.30;;;;;;5025845;28;19956;-67
2022/04/28 05:38:24;;;;;;;;;;;10.30;93.10;;;;;;5030478;28;20353;-68
2022/04/28 05:40:50;;;;;;;;;;;10.30;93.50;;;;;;5033837;28;20416;-69
2022/04/28 05:45:59;;;;;;;;;;;10.30;93.40;;;;;;5028537;28;20004;-67
2022/04/28 05:48:25;;;;;;;;;;;10.30;93.50;;;;;;5040857;28;20019;-68
2022/04/28 05:50:50;;;;;;;;;;;10.40;93.50;;;;;;5039862;28;19947;-68
2022/04/28 05:53:16;;;;;;;;;;;10.40;93.40;;;;;;5029514;28;19996;-68
2022/04/28 05:55:41;;;;;;;;;;;10.40;93.40;;;;;;5032440;28;20350;-68
2022/04/28 05:58:07;;;;;;;;;;;10.40;93.20;;;;;;5029791;28;19913;-67
2022/04/28 06:00:33;;;;;;;;;;;10.50;93.20;;;;;;5028174;28;19914;-67
2022/04/28 06:02:59;;;;;;;;;;;10.50;93.10;;;;;;5028786;28;19909;-67
2022/04/28 06:05:25;;;;;;;;;;;10.60;93.50;;;;;;5040237;28;19913;-67
2022/04/28 06:07:51;;;;;;;;;;;10.60;93.30;;;;;;5048083;28;19916;-69
2022/04/28 06:10:17;;;;;;;;;;;10.60;93.40;;;;;;5032200;28;19968;-69
2022/04/28 06:12:42;;;;;;;;;;;10.60;93.30;;;;;;5028468;28;19909;-68
2022/04/28 06:15:09;;;;;;;;;;;10.60;93.40;;;;;;5029196;28;20297;-69
2022/04/28 06:17:34;;;;;;;;;;;10.70;93.20;;;;;;5032288;28;19963;-67
2022/04/28 06:20:00;;;;;;;;;;;10.80;93.10;;;;;;5031599;28;20278;-67
2022/04/28 06:22:26;;;;;;;;;;;10.90;93.20;;;;;;5031012;28;19925;-67
2022/04/28 06:24:52;;;;;;;;;;;10.80;93.20;;;;;;5025531;28;19964;-69
2022/04/28 06:27:18;;;;;;;;;;;10.90;93.10;;;;;;5027326;28;19914;-68
2022/04/28 06:29:44;;;;;;;;;;;11.00;93.10;;;;;;5028312;28;19959;-69
2022/04/28 06:32:09;;;;;;;;;;;11.00;93.10;;;;;;5031583;28;19918;-68
2022/04/28 06:34:35;;;;;;;;;;;11.00;93.00;;;;;;5032856;28;19920;-68
2022/04/28 06:37:00;;;;;;;;;;;11.10;92.90;;;;;;5027318;28;19913;-68
2022/04/28 06:39:26;;;;;;;;;;;11.10;92.80;;;;;;5027729;28;19952;-68
2022/04/28 06:41:51;;;;;;;;;;;11.20;92.90;;;;;;5027477;28;19909;-68
2022/04/28 06:44:17;;;;;;;;;;;11.20;92.90;;;;;;5028119;28;20004;-68
2022/04/28 06:46:42;;;;;;;;;;;11.30;92.90;;;;;;5032139;28;20329;-68
2022/04/28 06:49:08;;;;;;;;;;;11.40;92.80;;;;;;5026975;28;19927;-68
2022/04/28 06:51:33;;;;;;;;;;;11.40;92.70;;;;;;5027116;28;19944;-68
2022/04/28 06:54:00;;;;;;;;;;;11.50;92.70;;;;;;5027466;28;19916;-68
2022/04/28 06:56:25;;;;;;;;;;;11.60;92.50;;;;;;5029133;28;19972;-68
2022/04/28 06:58:51;;;;;;;;;;;11.70;92.40;;;;;;5032068;28;19913;-67
2022/04/28 07:01:16;;;;;;;;;;;11.70;92.30;;;;;;5027502;28;19913;-67
2022/04/28 07:03:42;;;;;;;;;;;11.70;92.30;;;;;;5026779;28;20655;-67
2022/04/28 07:06:07;;;;;;;;;;;11.80;92.20;;;;;;5029556;28;20000;-68
2022/04/28 07:08:33;;;;;;;;;;;11.80;92.10;;;;;;5025009;28;19963;-67
2022/04/28 07:10:58;;;;;;;;;;;11.90;92.00;;;;;;5031459;28;20290;-67
2022/04/28 07:13:24;;;;;;;;;;;11.90;92.10;;;;;;5034582;28;19909;-68
2022/04/28 07:15:50;;;;;;;;;;;12.00;91.90;;;;;;5029683;28;19913;-68
2022/04/28 07:18:16;;;;;;;;;;;12.00;91.90;;;;;;5032892;28;19925;-68
2022/04/28 07:20:42;;;;;;;;;;;12.10;91.90;;;;;;5035716;28;20329;-61
2022/04/28 07:23:07;;;;;;;;;;;12.10;92.00;;;;;;5040421;28;19913;-61
2022/04/28 07:25:33;;;;;;;;;;;12.20;92.00;;;;;;5042158;28;19909;-60
2022/04/28 07:27:58;;;;;;;;;;;12.30;92.00;;;;;;5042624;28;19959;-60
2022/04/28 07:30:24;;;;;;;;;;;12.40;91.70;;;;;;5044056;28;19920;-58
2022/04/28 07:32:50;;;;;;;;;;;12.50;91.80;;;;;;5034415;28;20428;-60
2022/04/28 07:35:16;;;;;;;;;;;12.50;91.60;;;;;;5032729;28;19924;-60
2022/04/28 07:37:41;;;;;;;;;;;12.70;91.70;;;;;;5049275;28;19908;-61
2022/04/28 07:40:07;;;;;;;;;;;12.70;91.60;;;;;;5041801;28;19912;-61
2022/04/28 07:42:33;;;;;;;;;;;12.80;91.40;;;;;;5031905;28;20028;-62
2022/04/28 07:44:59;;;;;;;;;;;12.90;91.40;;;;;;5021004;28;19924;-60
2022/04/28 07:47:26;;;;;;;;;;;13.00;91.00;;;;;;5018792;28;19936;-64
2022/04/28 07:49:55;;;;;;;;;;;13.10;90.60;;;;;;5022861;28;19944;-62
2022/04/28 07:52:20;;;;;;;;;;;13.20;90.90;;;;;;5024730;28;19924;-63
2022/04/28 07:54:46;;;;;;;;;;;13.20;90.90;;;;;;5021737;28;19913;-64
2022/04/28 07:57:12;;;;;;;;;;;13.30;90.40;;;;;;5027511;28;19917;-63
2022/04/28 07:59:38;;;;;;;;;;;13.40;90.50;;;;;;5015808;28;19913;-62
2022/04/28 08:02:04;;;;;;;;;;;13.50;90.50;;;;;;5020099;28;20389;-60
2022/04/28 08:04:30;;;;;;;;;;;13.50;90.60;;;;;;5029833;28;19920;-59
2022/04/28 08:06:56;;;;;;;;;;;13.60;89.10;;;;;;5015552;28;19913;-60
2022/04/28 08:09:21;;;;;;;;;;;13.60;89.10;;;;;;5017572;28;19921;-61
2022/04/28 08:11:47;;;;;;;;;;;13.70;89.60;;;;;;5056266;28;19924;-58
2022/04/28 08:14:12;;;;;;;;;;;13.80;89.10;;;;;;5022839;28;19929;-60
2022/04/28 08:16:41;;;;;;;;;;;13.80;88.80;;;;;;5022139;28;19913;-58
2022/04/28 08:19:06;;;;;;;;;;;13.80;88.80;;;;;;5020620;28;20378;-59
2022/04/28 08:21:32;;;;;;;;;;;14.00;89.30;;;;;;5027449;28;19920;-58
2022/04/28 08:23:58;;;;;;;;;;;14.10;88.60;;;;;;5022960;28;20007;-58
2022/04/28 08:26:23;;;;;;;;;;;14.10;88.30;;;;;;5018224;28;19937;-58
2022/04/28 08:28:49;;;;;;;;;;;14.20;87.50;;;;;;5025179;28;19913;-58
2022/04/28 08:31:14;;;;;;;;;;;14.30;87.20;;;;;;5025988;28;19929;-58
2022/04/28 08:33:40;;;;;;;;;;;14.30;87.30;;;;;;5022110;28;19984;-60
2022/04/28 08:36:05;;;;;;;;;;;14.40;86.10;;;;;;5024342;28;19982;-60
2022/04/28 08:38:32;;;;;;;;;;;14.40;86.10;;;;;;5023541;28;19922;-61
2022/04/28 08:41:02;;;;;;;;;;;14.50;86.40;;;;;;5024070;28;19913;-59
2022/04/28 08:43:28;;;;;;;;;;;14.50;86.80;;;;;;5022362;28;19917;-58
2022/04/28 08:48:49;;;;;;;;;;;14.80;85.70;;;;;;5025531;28;19928;-59
2022/04/28 08:51:16;;;;;;;;;;;14.80;84.70;;;;;;5019723;28;19941;-58
2022/04/28 08:53:44;;;;;;;;;;;14.90;84.70;;;;;;5023412;28;19917;-59
2022/04/28 08:56:10;;;;;;;;;;;14.90;84.10;;;;;;5023554;28;19968;-59
2022/04/28 08:58:35;;;;;;;;;;;15.00;84.40;;;;;;5026313;28;19909;-58
2022/04/28 09:01:01;;;;;;;;;;;15.00;84.50;;;;;;5020827;28;20391;-59
2022/04/28 09:03:26;;;;;;;;;;;15.20;84.80;;;;;;5026964;28;19920;-59
2022/04/28 09:05:52;;;;;;;;;;;15.20;84.00;;;;;;5022636;28;19919;-59
2022/04/28 09:08:18;;;;;;;;;;;15.30;84.80;;;;;;5025508;28;19992;-58
2022/04/28 09:10:43;;;;;;;;;;;15.40;83.90;;;;;;5026378;28;20333;-58
2022/04/28 09:15:55;;;;;;;;;;;15.60;82.20;;;;;;5024006;28;19928;-58
2022/04/28 09:18:21;;;;;;;;;;;15.60;82.50;;;;;;5028537;28;19928;-58
2022/04/28 09:20:47;;;;;;;;;;;15.60;82.60;;;;;;5027279;28;20299;-59
2022/04/28 09:23:13;;;;;;;;;;;15.60;82.30;;;;;;5025356;28;19920;-59
2022/04/28 09:25:39;;;;;;;;;;;15.70;81.10;;;;;;5024432;28;19917;-59
2022/04/28 09:28:05;;;;;;;;;;;15.70;80.60;;;;;;5029021;28;19914;-59
2022/04/28 09:30:35;;;;;;;;;;;15.70;81.60;;;;;;5027022;28;19925;-58
2022/04/28 09:33:10;;;;;;;;;;;15.80;81.60;;;;;;5024113;28;19921;-58
2022/04/28 09:35:42;;;;;;;;;;;15.80;81.30;;;;;;5018443;28;19920;-59
2022/04/28 09:38:08;;;;;;;;;;;15.90;80.10;;;;;;5026396;28;19921;-59
2022/04/28 09:43:19;;;;;;;;;;;15.90;80.60;;;;;;5028750;28;19963;-58
2022/04/28 09:45:44;;;;;;;;;;;16.00;79.80;;;;;;5026309;28;19960;-59
2022/04/28 09:48:10;;;;;;;;;;;16.10;80.00;;;;;;5027601;28;19921;-59
2022/04/28 09:50:38;;;;;;;;;;;16.20;80.50;;;;;;5016292;28;20445;-59
2022/04/28 09:53:04;;;;;;;;;;;16.20;78.70;;;;;;5024612;28;19913;-59
2022/04/28 09:55:30;;;;;;;;;;;16.30;79.60;;;;;;5030181;28;20370;-58
2022/04/28 09:57:56;;;;;;;;;;;16.30;78.60;;;;;;5020830;28;19943;-59
2022/04/28 10:00:21;;;;;;;;;;;16.40;78.10;;;;;;5021683;28;19917;-59
2022/04/28 10:02:48;;;;;;;;;;;16.50;78.20;;;;;;5023458;28;19913;-58
2022/04/28 10:05:14;;;;;;;;;;;16.50;78.90;;;;;;5026610;28;19921;-59
2022/04/28 10:07:40;;;;;;;;;;;16.60;77.60;;;;;;5019623;28;20371;-59
2022/04/28 10:10:06;;;;;;;;;;;16.70;77.20;;;;;;5026545;28;19922;-60
2022/04/28 10:12:32;;;;;;;;;;;16.80;77.80;;;;;;5022851;28;19948;-58
2022/04/28 10:14:59;;;;;;;;;;;16.90;77.20;;;;;;5024654;28;19917;-58
2022/04/28 10:17:28;;;;;;;;;;;17.00;76.20;;;;;;5019096;28;20465;-59
2022/04/28 10:19:56;;;;;;;;;;;17.00;75.10;;;;;;5028422;28;20317;-60
2022/04/28 10:22:23;;;;;;;;;;;17.10;75.40;;;;;;5022957;28;20111;-59
2022/04/28 10:33:04;;;;;;;;;;;17.40;74.70;;;;;;5023977;28;20007;-58
2022/04/28 10:35:43;;;;;;;;;;;17.50;73.80;;;;;;5024652;28;19953;-60
2022/04/28 10:38:11;;;;;;;;;;;17.50;73.70;;;;;;5027439;28;19924;-58
2022/04/28 10:40:38;;;;;;;;;;;17.50;74.10;;;;;;5028587;28;19916;-60
2022/04/28 10:43:03;;;;;;;;;;;17.60;73.90;;;;;;5028857;28;19917;-58
2022/04/28 10:45:38;;;;;;;;;;;17.70;72.40;;;;;;5024186;28;20730;-59
2022/04/28 10:48:31;;;;;;;;;;;17.70;72.60;;;;;;5024449;28;19964;-58
2022/04/28 10:51:17;;;;;;;;;;;17.70;71.50;;;;;;5004449;28;19921;-58
2022/04/28 10:54:01;;;;;;;;;;;17.80;71.70;;;;;;5002996;28;20408;-61
2022/04/28 10:56:54;;;;;;;;;;;17.90;70.00;;;;;;5003859;28;19920;-59
2022/04/28 10:59:25;;;;;;;;;;;17.90;71.30;;;;;;4996833;28;19921;-60
2022/04/28 11:01:51;;;;;;;;;;;18.00;70.90;;;;;;5003854;28;20436;-57
2022/04/28 11:04:20;;;;;;;;;;;18.00;71.40;;;;;;5005917;28;19914;-59
2022/04/28 11:06:50;;;;;;;;;;;18.10;71.10;;;;;;5004612;28;19924;-61
2022/04/28 11:09:29;;;;;;;;;;;18.20;68.70;;;;;;5003051;28;19939;-58
2022/04/28 11:12:05;;;;;;;;;;;18.10;66.50;;;;;;5001544;28;20064;-59
2022/04/28 11:14:43;;;;;;;;;;;18.10;68.00;;;;;;5007414;28;20032;-60
2022/04/28 11:17:10;;;;;;;;;;;18.20;67.70;;;;;;5001421;28;19949;-60
2022/04/28 11:19:36;;;;;;;;;;;18.20;66.20;;;;;;5007460;28;19921;-61
2022/04/28 11:22:01;;;;;;;;;;;18.30;67.40;;;;;;5006024;28;19917;-60
2022/04/28 11:24:28;;;;;;;;;;;18.40;66.80;;;;;;4990102;28;19914;-59
2022/04/28 11:26:55;;;;;;;;;;;18.50;65.10;;;;;;5007272;28;21468;-61
2022/04/28 11:29:22;;;;;;;;;;;18.60;63.80;;;;;;5026486;28;19944;-60
2022/04/28 11:31:49;;;;;;;;;;;18.60;62.40;;;;;;5023415;28;19925;-59
2022/04/28 11:34:15;;;;;;;;;;;18.70;62.30;;;;;;5024608;28;19920;-61
2022/04/28 11:36:41;;;;;;;;;;;18.90;64.00;;;;;;5023070;28;19917;-59
2022/04/28 11:39:08;;;;;;;;;;;19.00;63.60;;;;;;5025852;28;19924;-60
2022/04/28 11:41:39;;;;;;;;;;;19.20;63.70;;;;;;5023708;28;19920;-60
2022/04/28 11:44:07;;;;;;;;;;;19.20;62.50;;;;;;5022089;28;19913;-60
2022/04/28 11:46:51;;;;;;;;;;;19.20;63.20;;;;;;5027446;28;19936;-60
2022/04/28 11:49:17;;;;;;;;;;;19.20;61.90;;;;;;5039000;28;20008;-61
2022/04/28 11:51:43;;;;;;;;;;;19.30;62.40;;;;;;5026297;28;20620;-60
2022/04/28 11:54:19;;;;;;;;;;;19.30;60.90;;;;;;5026614;28;20507;-60
2022/04/28 11:56:45;;;;;;;;;;;19.40;62.80;;;;;;5025063;28;19921;-60
2022/04/28 11:59:11;;;;;;;;;;;19.40;61.30;;;;;;5022320;28;20051;-59
2022/04/28 12:01:36;;;;;;;;;;;19.40;61.40;;;;;;5021440;28;19959;-58
2022/04/28 12:04:02;;;;;;;;;;;19.40;61.70;;;;;;5022547;28;20038;-60
2022/04/28 12:06:28;;;;;;;;;;;19.40;61.10;;;;;;5023229;28;19965;-61
2022/04/28 12:08:53;;;;;;;;;;;19.40;60.90;;;;;;5019310;28;20026;-60
2022/04/28 12:14:23;;;;;;;;;;;19.50;59.60;;;;;;5025465;28;19959;-58
2022/04/28 12:19:56;;;;;;;;;;;19.50;58.30;;;;;;5022646;28;20634;-59
2022/04/28 12:22:25;;;;;;;;;;;19.40;59.10;;;;;;5024604;28;19979;-59
2022/04/28 12:24:51;;;;;;;;;;;19.50;58.90;;;;;;5022981;28;19917;-58
2022/04/28 12:27:16;;;;;;;;;;;19.60;59.20;;;;;;5017441;28;19920;-60
2022/04/28 12:29:46;;;;;;;;;;;19.80;58.80;;;;;;5019580;28;19922;-59
2022/04/28 12:32:13;;;;;;;;;;;19.90;60.10;;;;;;5025814;28;20373;-59
2022/04/28 12:34:38;;;;;;;;;;;19.90;59.00;;;;;;5028845;28;20000;-60
2022/04/28 12:37:04;;;;;;;;;;;19.90;57.50;;;;;;5024905;28;20348;-59
2022/04/28 12:39:31;;;;;;;;;;;19.90;58.40;;;;;;5026708;28;19947;-57
2022/04/28 12:41:57;;;;;;;;;;;19.90;58.10;;;;;;5020369;28;20334;-59
2022/04/28 12:44:23;;;;;;;;;;;20.00;56.90;;;;;;5020177;28;19921;-59
2022/04/28 12:46:51;;;;;;;;;;;20.00;57.60;;;;;;5028945;28;19967;-59
2022/04/28 12:49:17;;;;;;;;;;;20.10;58.20;;;;;;5026692;28;19913;-59
2022/04/28 12:51:46;;;;;;;;;;;20.10;55.90;;;;;;5030733;28;20393;-59
2022/04/28 12:54:12;;;;;;;;;;;20.10;53.60;;;;;;5024246;28;20007;-59
2022/04/28 12:56:38;;;;;;;;;;;20.10;55.10;;;;;;5029809;28;20004;-59
2022/04/28 12:59:04;;;;;;;;;;;20.10;55.80;;;;;;5020966;28;20293;-59
2022/04/28 13:01:30;;;;;;;;;;;20.10;55.90;;;;;;5031172;28;19939;-59
2022/04/28 13:03:57;;;;;;;;;;;20.30;57.00;;;;;;5027913;28;20370;-57
2022/04/28 13:06:24;;;;;;;;;;;20.30;56.30;;;;;;5025599;28;19917;-59
2022/04/28 13:08:51;;;;;;;;;;;20.40;56.20;;;;;;5024583;28;20361;-60
2022/04/28 13:11:21;;;;;;;;;;;20.60;55.40;;;;;;5023347;28;19928;-58
2022/04/28 13:13:47;;;;;;;;;;;20.60;55.30;;;;;;5030332;28;19913;-60
2022/04/28 13:16:12;;;;;;;;;;;20.70;55.20;;;;;;5022424;28;20278;-60
2022/04/28 13:18:37;;;;;;;;;;;20.80;54.30;;;;;;5024584;28;19967;-59
2022/04/28 13:21:03;;;;;;;;;;;20.80;53.30;;;;;;5021349;28;20722;-58
2022/04/28 13:23:28;;;;;;;;;;;20.80;54.00;;;;;;5030840;28;19922;-60
2022/04/28 13:25:54;;;;;;;;;;;20.80;54.10;;;;;;5024764;28;19921;-60
2022/04/28 13:28:19;;;;;;;;;;;20.90;53.70;;;;;;5027016;28;20263;-58
2022/04/28 13:30:45;;;;;;;;;;;20.90;53.80;;;;;;5028211;28;19925;-60
2022/04/28 13:33:11;;;;;;;;;;;20.90;54.00;;;;;;5023354;28;19917;-59
2022/04/28 13:35:36;;;;;;;;;;;20.80;53.70;;;;;;5017967;28;19949;-59
2022/04/28 13:38:03;;;;;;;;;;;20.80;51.20;;;;;;5029718;28;19913;-59
2022/04/28 13:40:29;;;;;;;;;;;20.80;52.00;;;;;;5028412;28;19985;-56
2022/04/28 13:42:54;;;;;;;;;;;20.70;52.70;;;;;;5022768;28;20005;-60
2022/04/28 13:45:20;;;;;;;;;;;20.70;52.00;;;;;;5023273;28;20386;-58
2022/04/28 13:47:45;;;;;;;;;;;20.70;50.80;;;;;;5023834;28;19924;-60
2022/04/28 13:50:11;;;;;;;;;;;20.80;51.80;;;;;;5028925;28;20282;-59
2022/04/28 13:52:37;;;;;;;;;;;20.80;50.80;;;;;;5026083;28;19963;-60
2022/04/28 13:55:02;;;;;;;;;;;20.80;51.40;;;;;;5027093;28;20357;-57
2022/04/28 13:57:28;;;;;;;;;;;20.80;50.90;;;;;;5026228;28;20436;-59
2022/04/28 13:59:53;;;;;;;;;;;20.80;50.20;;;;;;5023755;28;20019;-59
2022/04/28 14:02:19;;;;;;;;;;;20.70;50.30;;;;;;5021536;28;20275;-59
2022/04/28 14:04:44;;;;;;;;;;;20.70;51.00;;;;;;5030797;28;20445;-59
2022/04/28 14:07:10;;;;;;;;;;;20.70;52.10;;;;;;5019388;28;19914;-60
2022/04/28 14:09:36;;;;;;;;;;;20.80;51.80;;;;;;5025119;28;19964;-59
2022/04/28 14:12:01;;;;;;;;;;;20.90;52.70;;;;;;5021948;28;19921;-60
2022/04/28 14:14:28;;;;;;;;;;;21.00;51.00;;;;;;5025177;28;19983;-60
2022/04/28 14:16:53;;;;;;;;;;;21.00;51.70;;;;;;5032565;28;19924;-60
2022/04/28 14:19:19;;;;;;;;;;;21.00;50.80;;;;;;5023682;28;20481;-60
2022/04/28 14:21:45;;;;;;;;;;;21.10;49.90;;;;;;5028284;28;20008;-58
2022/04/28 14:24:11;;;;;;;;;;;20.90;50.50;;;;;;5025690;28;19956;-58
2022/04/28 14:26:36;;;;;;;;;;;20.90;50.10;;;;;;5023620;28;19917;-60
2022/04/28 14:29:02;;;;;;;;;;;20.90;49.80;;;;;;5021716;28;20382;-60
2022/04/28 14:31:28;;;;;;;;;;;20.90;49.10;;;;;;5028880;28;19972;-60
2022/04/28 14:33:54;;;;;;;;;;;20.90;48.90;;;;;;5026333;28;19921;-60
2022/04/28 14:36:19;;;;;;;;;;;20.90;49.70;;;;;;5025420;28;20274;-59
2022/04/28 14:38:45;;;;;;;;;;;20.90;50.80;;;;;;5019974;28;19917;-60
2022/04/28 14:41:10;;;;;;;;;;;21.00;50.80;;;;;;5026058;28;19921;-60
2022/04/28 14:43:36;;;;;;;;;;;21.10;49.90;;;;;;5018691;28;19959;-59
2022/04/28 14:46:01;;;;;;;;;;;21.10;49.80;;;;;;5025615;28;20283;-59
2022/04/28 14:48:27;;;;;;;;;;;21.00;48.90;;;;;;5032632;28;19937;-59
2022/04/28 14:53:36;;;;;;;;;;;21.10;49.30;;;;;;5025302;28;19960;-60
2022/04/28 14:56:02;;;;;;;;;;;21.10;50.20;;;;;;5027653;28;19965;-60